Newington, Georgia
Current Conditions -  °F | °C
As of 1:35 AM on Wednesday 28 Jan 2015 (Local Time) from KJYL Reporting Station
Clear Clear  
Wind Chill: 32°   Ceiling: Unl
Heat Index: 36°   Visibility: 10mi
Dew Point: 32°   Wind: 5mph
Humidity: 86%   Direction: 330°NNW
Pressure: 30.09"   Gusts: NA
Location:  32.59°N, 81.5°W
Report Text: KJYL 280635Z AUTO 33004KT 10SM CLR 02/00 A3009 RMK AO2 T00201001
Loading
Personal Weather Stations






























Interactive Weather Map New forecast layout! Learn more

10-Day Weather Forecast

Advertisements
Track Severe Weather on mobile